createdAt,value
2023-01-08T00:01:38.261Z,73.82
2023-01-08T00:04:07.338Z,73.56
2023-01-08T00:06:36.099Z,73.70
2023-01-08T00:09:05.152Z,73.89
2023-01-08T00:11:33.751Z,73.89
2023-01-08T00:14:02.385Z,73.98
2023-01-08T00:16:32.933Z,73.84
2023-01-08T00:19:01.611Z,73.84
2023-01-08T00:21:30.553Z,73.46
2023-01-08T00:23:59.221Z,73.41
2023-01-08T00:26:27.870Z,73.39
2023-01-08T00:28:57.109Z,73.48
2023-01-08T00:31:26.982Z,73.61
2023-01-08T00:33:56.886Z,73.78
2023-01-08T00:36:25.649Z,73.83
2023-01-08T00:38:54.212Z,73.77
2023-01-08T00:41:22.789Z,73.90
2023-01-08T00:43:51.322Z,73.84
2023-01-08T00:46:21.543Z,73.82
2023-01-08T00:48:50.189Z,73.31
2023-01-08T00:51:20.428Z,73.59
2023-01-08T00:53:48.986Z,73.46
2023-01-08T00:56:17.620Z,73.67
2023-01-08T00:58:46.299Z,73.78
2023-01-08T01:01:16.203Z,74.02
2023-01-08T01:03:45.192Z,74.23
2023-01-08T01:06:14.995Z,74.40
2023-01-08T01:08:45.220Z,74.25
2023-01-08T01:11:20.089Z,74.33
2023-01-08T01:13:48.783Z,74.63
2023-01-08T01:16:17.755Z,74.41
2023-01-08T01:18:46.709Z,74.17
2023-01-08T01:21:22.494Z,74.36
2023-01-08T01:23:54.262Z,74.17
2023-01-08T01:26:24.466Z,73.78
2023-01-08T01:28:54.597Z,74.16
2023-01-08T01:31:24.251Z,74.15
2023-01-08T01:33:53.191Z,74.45
2023-01-08T01:36:23.946Z,74.43
2023-01-08T01:38:56.594Z,74.82
2023-01-08T01:41:28.217Z,74.48
2023-01-08T01:43:57.592Z,74.72
2023-01-08T01:46:35.514Z,75.15
2023-01-08T01:49:08.463Z,74.94
2023-01-08T01:51:38.394Z,75.11
2023-01-08T01:54:11.084Z,75.28
2023-01-08T01:56:39.852Z,75.39
2023-01-08T01:59:08.768Z,75.49
2023-01-08T02:01:38.405Z,75.62
2023-01-08T02:04:07.879Z,75.53
2023-01-08T02:06:39.598Z,75.67
2023-01-08T02:09:16.459Z,75.69
2023-01-08T02:11:48.772Z,75.70
2023-01-08T02:14:21.731Z,75.86
2023-01-08T02:16:55.162Z,75.34
2023-01-08T02:19:37.017Z,75.79
2023-01-08T02:22:14.184Z,75.72
2023-01-08T02:24:55.403Z,75.90
2023-01-08T02:27:27.193Z,75.96
2023-01-08T02:29:56.544Z,75.93
2023-01-08T02:32:27.584Z,75.84
2023-01-08T02:34:56.568Z,76.07
2023-01-08T02:37:25.479Z,75.87
2023-01-08T02:40:04.773Z,75.84
2023-01-08T02:42:38.250Z,75.94
2023-01-08T02:45:12.629Z,75.65
2023-01-08T02:47:43.694Z,75.48
2023-01-08T02:50:17.021Z,75.71
2023-01-08T02:52:51.330Z,75.26
2023-01-08T02:55:22.763Z,75.27
2023-01-08T02:57:53.136Z,75.01
2023-01-08T03:00:22.491Z,75.12
2023-01-08T03:02:52.828Z,74.88
2023-01-08T03:05:25.184Z,74.87
2023-01-08T03:07:54.044Z,75.22
2023-01-08T03:10:24.079Z,75.20
2023-01-08T03:12:57.056Z,75.16
2023-01-08T03:15:28.538Z,74.94
2023-01-08T03:18:00.145Z,75.10
2023-01-08T03:20:28.823Z,75.07
2023-01-08T03:22:59.292Z,74.68
2023-01-08T03:25:29.373Z,74.79
2023-01-08T03:28:02.592Z,74.65
2023-01-08T03:30:32.361Z,74.84
2023-01-08T03:33:02.098Z,75.03
2023-01-08T03:35:31.637Z,75.03
2023-01-08T03:38:04.730Z,74.82
2023-01-08T03:40:38.158Z,74.28
2023-01-08T03:43:08.129Z,75.18
2023-01-08T03:45:39.080Z,75.29
2023-01-08T03:48:08.237Z,75.20
2023-01-08T03:50:37.278Z,75.16
2023-01-08T03:53:05.974Z,75.26
2023-01-08T03:55:34.795Z,75.58
2023-01-08T03:58:03.583Z,75.43
2023-01-08T04:00:33.574Z,75.41
2023-01-08T04:03:04.405Z,75.62
2023-01-08T04:05:34.420Z,76.00
2023-01-08T04:08:03.037Z,76.03
2023-01-08T04:10:31.663Z,75.91
2023-01-08T04:13:00.338Z,76.07
2023-01-08T04:15:29.031Z,76.07
2023-01-08T04:17:59.120Z,75.87
2023-01-08T04:20:27.840Z,75.82
2023-01-08T04:22:56.614Z,75.90
2023-01-08T04:25:25.213Z,75.73
2023-01-08T04:27:53.965Z,75.56
2023-01-08T04:30:22.705Z,75.62
2023-01-08T04:32:51.316Z,75.35
2023-01-08T04:35:21.265Z,75.55
2023-01-08T04:37:49.855Z,75.58
2023-01-08T04:40:18.464Z,75.47
2023-01-08T04:42:47.080Z,75.76
2023-01-08T04:45:15.838Z,75.95
2023-01-08T04:47:44.414Z,76.18
2023-01-08T04:50:13.419Z,76.25
2023-01-08T04:52:43.613Z,76.19
2023-01-08T04:55:12.317Z,76.37
2023-01-08T04:57:40.979Z,76.29
2023-01-08T05:00:10.734Z,76.33
2023-01-08T05:02:39.694Z,76.81
2023-01-08T05:05:09.150Z,76.49
2023-01-08T05:07:37.858Z,76.15
2023-01-08T05:10:09.211Z,75.75
2023-01-08T05:12:37.889Z,75.72
2023-01-08T05:15:07.246Z,75.51
2023-01-08T05:17:35.906Z,75.30
2023-01-08T05:20:04.604Z,75.20
2023-01-08T05:22:33.193Z,74.80
2023-01-08T05:25:01.897Z,74.50
2023-01-08T05:27:31.982Z,74.79
2023-01-08T05:30:00.723Z,74.55
2023-01-08T05:32:29.349Z,74.51
2023-01-08T05:34:57.953Z,74.53
2023-01-08T05:37:26.712Z,74.54
2023-01-08T05:39:55.292Z,74.63
2023-01-08T05:42:24.307Z,74.75
2023-01-08T05:44:54.233Z,75.01
2023-01-08T05:47:22.918Z,75.38
2023-01-08T05:49:51.525Z,75.11
2023-01-08T05:52:20.113Z,75.20
2023-01-08T05:54:48.709Z,75.52
2023-01-08T05:57:17.501Z,76.32
2023-01-08T05:59:46.190Z,75.64
2023-01-08T06:02:16.154Z,76.04
2023-01-08T06:04:44.863Z,76.82
2023-01-08T06:07:13.698Z,76.36
2023-01-08T06:09:42.249Z,76.60
2023-01-08T06:12:10.911Z,77.17
2023-01-08T06:14:39.497Z,77.81
2023-01-08T06:17:08.388Z,78.40
2023-01-08T06:19:39.303Z,78.34
2023-01-08T06:22:08.030Z,79.26
2023-01-08T06:24:36.881Z,79.34
2023-01-08T06:27:05.729Z,79.69
2023-01-08T06:29:34.423Z,80.40
2023-01-08T06:32:03.172Z,80.13
2023-01-08T06:34:31.830Z,80.00
2023-01-08T06:37:01.777Z,79.32
2023-01-08T06:39:30.381Z,79.71
2023-01-08T06:41:59.139Z,79.32
2023-01-08T06:44:27.887Z,79.12
2023-01-08T06:46:56.553Z,79.46
2023-01-08T06:49:25.236Z,78.84
2023-01-08T06:51:53.893Z,78.52
2023-01-08T06:54:23.858Z,78.81
2023-01-08T06:56:54.499Z,78.49
2023-01-08T06:59:23.371Z,79.05
2023-01-08T07:01:52.277Z,79.21
2023-01-08T07:04:21.259Z,78.46
2023-01-08T07:06:50.164Z,77.73
2023-01-08T07:09:18.756Z,77.62
2023-01-08T07:11:48.798Z,77.83
2023-01-08T07:14:17.465Z,78.14
2023-01-08T07:16:46.028Z,78.75
2023-01-08T07:19:14.625Z,79.37
2023-01-08T07:21:43.426Z,79.75
2023-01-08T07:24:12.043Z,79.91
2023-01-08T07:26:40.742Z,79.58
2023-01-08T07:29:10.859Z,80.24
2023-01-08T07:31:39.542Z,79.97
2023-01-08T07:34:08.506Z,81.02
2023-01-08T07:36:37.132Z,81.32
2023-01-08T07:39:05.907Z,81.44
2023-01-08T07:41:34.597Z,82.00
2023-01-08T07:44:03.437Z,81.57
2023-01-08T07:46:33.754Z,82.50
2023-01-08T07:49:02.570Z,82.88
2023-01-08T07:51:31.256Z,82.40
2023-01-08T07:53:59.890Z,83.37
2023-01-08T07:56:28.492Z,82.91
2023-01-08T07:58:57.132Z,83.17
2023-01-08T08:01:26.597Z,83.43
2023-01-08T08:03:56.567Z,83.21
2023-01-08T08:06:25.131Z,83.25
2023-01-08T08:08:53.661Z,83.62
2023-01-08T08:11:22.453Z,83.75
2023-01-08T08:13:53.062Z,83.81
2023-01-08T08:16:22.660Z,84.10
2023-01-08T08:18:51.354Z,84.22
2023-01-08T08:21:21.317Z,84.28
2023-01-08T08:23:49.961Z,84.62
2023-01-08T08:26:18.681Z,84.65
2023-01-08T08:28:47.266Z,84.51
2023-01-08T08:31:15.927Z,84.79
2023-01-08T08:33:44.680Z,85.12
2023-01-08T08:36:13.412Z,85.00
2023-01-08T08:38:43.403Z,84.80
2023-01-08T08:41:12.177Z,84.58
2023-01-08T08:43:40.863Z,84.58
2023-01-08T08:46:09.607Z,84.92
2023-01-08T08:48:38.197Z,85.09
2023-01-08T08:51:06.946Z,85.00
2023-01-08T08:53:35.603Z,84.70
2023-01-08T08:56:06.098Z,84.31
2023-01-08T08:58:34.695Z,85.37
2023-01-08T09:01:04.145Z,85.64
2023-01-08T09:03:32.860Z,84.41
2023-01-08T09:06:01.697Z,83.96
2023-01-08T09:08:30.373Z,83.54
2023-01-08T09:10:59.275Z,83.88
2023-01-08T09:13:29.571Z,83.74
2023-01-08T09:15:59.771Z,83.58
2023-01-08T09:18:28.621Z,83.11
2023-01-08T09:20:57.243Z,83.03
2023-01-08T09:23:26.003Z,83.37
2023-01-08T09:26:01.196Z,82.91
2023-01-08T09:28:31.344Z,83.39
2023-01-08T09:31:03.709Z,82.81
2023-01-08T09:33:32.980Z,82.84
2023-01-08T09:36:01.700Z,82.50
2023-01-08T09:38:30.590Z,81.66
2023-01-08T09:41:01.985Z,81.87
2023-01-08T09:43:34.598Z,81.76
2023-01-08T09:46:06.396Z,81.54
2023-01-08T09:48:38.217Z,81.76
2023-01-08T09:51:10.205Z,82.80
2023-01-08T09:53:39.154Z,82.75
2023-01-08T09:56:14.545Z,81.78
2023-01-08T09:58:46.773Z,80.79
2023-01-08T10:01:19.917Z,80.87
2023-01-08T10:03:50.200Z,80.73
2023-01-08T10:06:19.494Z,81.15
2023-01-08T10:08:48.256Z,80.91
2023-01-08T10:11:17.299Z,80.83
2023-01-08T10:13:51.187Z,80.86
2023-01-08T10:16:27.884Z,80.97
2023-01-08T10:18:56.544Z,80.26
2023-01-08T10:21:33.038Z,80.05
2023-01-08T10:24:01.632Z,79.40
2023-01-08T10:26:32.384Z,79.89
2023-01-08T10:29:26.406Z,80.50
2023-01-08T10:31:57.175Z,79.52
2023-01-08T10:34:33.992Z,79.59
2023-01-08T10:37:02.613Z,79.68
2023-01-08T10:39:33.263Z,79.07
2023-01-08T10:42:06.675Z,79.01
2023-01-08T10:44:36.934Z,78.87
2023-01-08T10:47:06.618Z,78.34
2023-01-08T10:49:39.143Z,78.23
2023-01-08T10:52:20.348Z,77.94
2023-01-08T10:54:50.957Z,78.10
2023-01-08T10:57:27.310Z,77.88
2023-01-08T11:00:00.134Z,78.23
2023-01-08T11:02:38.334Z,77.83
2023-01-08T11:05:10.299Z,77.78
2023-01-08T11:07:40.211Z,77.79
2023-01-08T11:10:23.038Z,78.29
2023-01-08T11:12:56.463Z,77.93
2023-01-08T11:15:35.568Z,78.35
2023-01-08T11:18:13.495Z,77.92
2023-01-08T11:20:42.826Z,77.34
2023-01-08T11:23:18.561Z,77.58
2023-01-08T11:25:53.649Z,77.02
2023-01-08T11:28:28.331Z,77.49
2023-01-08T11:31:05.915Z,77.48
2023-01-08T11:33:36.087Z,76.90
2023-01-08T11:36:09.916Z,76.46
2023-01-08T11:38:38.514Z,76.63
2023-01-08T11:41:19.225Z,76.43
2023-01-08T11:44:01.261Z,75.26
2023-01-08T11:46:38.282Z,76.07
2023-01-08T11:49:36.797Z,76.22
2023-01-08T11:52:17.502Z,75.79
2023-01-08T11:54:57.353Z,75.71
2023-01-08T11:57:37.689Z,75.50
2023-01-08T12:00:17.933Z,75.85
2023-01-08T12:02:53.831Z,75.29
2023-01-08T12:05:29.168Z,74.80
2023-01-08T12:08:04.184Z,75.46
2023-01-08T12:10:55.907Z,75.48
2023-01-08T12:13:41.248Z,75.59
2023-01-08T12:16:12.702Z,75.59
2023-01-08T12:18:58.504Z,75.58
2023-01-08T12:21:31.245Z,74.65
2023-01-08T12:24:17.165Z,74.96
2023-01-08T12:26:51.484Z,75.18
2023-01-08T12:29:50.049Z,75.35
2023-01-08T12:32:26.161Z,75.27
2023-01-08T12:35:02.844Z,74.89
2023-01-08T12:37:37.315Z,73.91
2023-01-08T12:40:13.540Z,73.96
2023-01-08T12:42:50.360Z,74.27
2023-01-08T12:45:27.514Z,73.96
2023-01-08T12:47:58.040Z,74.76
2023-01-08T12:50:37.983Z,73.48
2023-01-08T12:53:10.761Z,73.58
2023-01-08T12:55:45.925Z,73.96
2023-01-08T12:58:27.752Z,73.67
2023-01-08T13:01:06.155Z,73.83
2023-01-08T13:03:35.416Z,73.56
2023-01-08T13:06:10.619Z,74.02
2023-01-08T13:08:40.302Z,73.58
2023-01-08T13:11:09.623Z,73.70
2023-01-08T13:13:41.653Z,73.26
2023-01-08T13:16:20.650Z,73.86
2023-01-08T13:18:57.077Z,73.88
2023-01-08T13:21:35.838Z,73.85
2023-01-08T13:24:23.139Z,73.64
2023-01-08T13:26:53.550Z,73.41
2023-01-08T13:29:36.636Z,73.19
2023-01-08T13:32:05.496Z,73.28
2023-01-08T13:34:40.542Z,72.85
2023-01-08T13:37:23.105Z,73.24
2023-01-08T13:39:55.862Z,73.28
2023-01-08T13:42:28.712Z,71.83
2023-01-08T13:45:02.051Z,72.06
2023-01-08T13:47:33.247Z,72.30
2023-01-08T13:50:04.675Z,72.61
2023-01-08T13:52:42.349Z,72.35
2023-01-08T13:55:16.645Z,72.17
2023-01-08T13:57:47.942Z,71.14
2023-01-08T14:00:24.234Z,71.57
2023-01-08T14:02:55.182Z,73.10
2023-01-08T14:05:26.786Z,71.91
2023-01-08T14:07:57.898Z,71.89
2023-01-08T14:10:30.356Z,70.95
2023-01-08T14:13:07.417Z,69.87
2023-01-08T14:15:40.683Z,69.37
2023-01-08T14:18:09.515Z,69.45
2023-01-08T14:20:40.703Z,68.61
2023-01-08T14:23:19.210Z,67.90
2023-01-08T14:25:49.563Z,68.85
2023-01-08T14:28:20.428Z,68.07
2023-01-08T14:30:50.290Z,68.38
2023-01-08T14:33:20.700Z,68.58
2023-01-08T14:35:51.247Z,69.10
2023-01-08T14:38:21.297Z,68.56
2023-01-08T14:40:58.120Z,67.87
2023-01-08T14:43:26.869Z,68.79
2023-01-08T14:45:57.059Z,69.05
2023-01-08T14:48:29.300Z,68.58
2023-01-08T14:51:03.391Z,68.46
2023-01-08T14:53:35.386Z,68.84
2023-01-08T14:56:06.107Z,68.48
2023-01-08T14:58:37.890Z,68.79
2023-01-08T15:01:10.668Z,68.39
2023-01-08T15:03:42.544Z,69.14
2023-01-08T15:06:11.848Z,69.21
2023-01-08T15:08:43.920Z,69.02
2023-01-08T15:11:22.732Z,69.02
2023-01-08T15:13:53.080Z,68.73
2023-01-08T15:16:28.158Z,68.47
2023-01-08T15:19:01.559Z,68.62
2023-01-08T15:21:30.284Z,68.23
2023-01-08T15:24:01.813Z,68.37
2023-01-08T15:26:30.676Z,68.28
2023-01-08T15:29:00.460Z,67.64
2023-01-08T15:31:30.941Z,67.80
2023-01-08T15:34:01.010Z,68.18
2023-01-08T15:36:29.833Z,68.43
2023-01-08T15:39:00.086Z,68.68
2023-01-08T15:41:53.947Z,69.06
2023-01-08T15:44:22.728Z,68.93
2023-01-08T15:46:52.129Z,68.83
2023-01-08T15:49:20.878Z,69.10
2023-01-08T15:51:50.812Z,68.84
2023-01-08T15:54:23.930Z,68.99
2023-01-08T15:56:52.876Z,69.29
2023-01-08T15:59:21.501Z,69.33
2023-01-08T16:01:50.273Z,69.50
2023-01-08T16:04:19.969Z,69.96
2023-01-08T16:06:48.924Z,69.74
2023-01-08T16:09:17.805Z,69.67
2023-01-08T16:11:47.774Z,69.71
2023-01-08T16:14:16.491Z,69.93
2023-01-08T16:16:45.161Z,70.06
2023-01-08T16:19:13.862Z,70.07
2023-01-08T16:21:46.905Z,70.45
2023-01-08T16:24:15.969Z,70.42
2023-01-08T16:26:44.933Z,70.19
2023-01-08T16:29:15.084Z,70.04
2023-01-08T16:31:46.892Z,70.59
2023-01-08T16:34:16.406Z,70.38
2023-01-08T16:36:45.381Z,70.66
2023-01-08T16:39:14.259Z,70.77
2023-01-08T16:41:43.053Z,70.70
2023-01-08T16:44:19.652Z,70.73
2023-01-08T16:46:48.909Z,70.56
2023-01-08T16:49:17.897Z,71.00
2023-01-08T16:51:46.532Z,70.75
2023-01-08T16:54:15.900Z,70.75
2023-01-08T16:56:44.580Z,71.24
2023-01-08T16:59:22.905Z,71.02
2023-01-08T17:01:53.557Z,71.48
2023-01-08T17:04:22.465Z,71.40
2023-01-08T17:06:51.062Z,71.60
2023-01-08T17:09:20.017Z,71.65
2023-01-08T17:11:48.841Z,72.10
2023-01-08T17:14:17.504Z,71.97
2023-01-08T17:16:47.405Z,72.02
2023-01-08T17:19:17.693Z,72.29
2023-01-08T17:21:48.162Z,72.45
2023-01-08T17:24:16.861Z,72.71
2023-01-08T17:26:45.659Z,72.30
2023-01-08T17:29:14.368Z,72.60
2023-01-08T17:31:43.097Z,72.55
2023-01-08T17:34:13.980Z,72.33
2023-01-08T17:36:44.100Z,72.67
2023-01-08T17:39:13.245Z,72.72
2023-01-08T17:41:59.377Z,72.97
2023-01-08T17:44:28.196Z,72.83
2023-01-08T17:46:57.028Z,72.88
2023-01-08T17:49:25.670Z,73.39
2023-01-08T17:51:57.016Z,73.43
2023-01-08T17:54:25.905Z,73.31
2023-01-08T17:56:54.605Z,73.62
2023-01-08T17:59:23.638Z,73.44
2023-01-08T18:01:53.951Z,73.66
2023-01-08T18:04:22.796Z,73.64
2023-01-08T18:06:51.414Z,73.45
2023-01-08T18:09:21.577Z,73.86
2023-01-08T18:11:50.256Z,73.45
2023-01-08T18:14:18.904Z,73.74
2023-01-08T18:16:49.355Z,73.02
2023-01-08T18:19:19.916Z,73.13
2023-01-08T18:21:49.098Z,73.21
2023-01-08T18:24:17.859Z,73.63
2023-01-08T18:26:48.067Z,73.66
2023-01-08T18:29:16.787Z,73.25
2023-01-08T18:31:46.392Z,73.30
2023-01-08T18:34:16.100Z,72.70
2023-01-08T18:36:45.023Z,72.93
2023-01-08T18:39:13.957Z,72.65
2023-01-08T18:42:00.109Z,72.79
2023-01-08T18:44:30.125Z,72.64
2023-01-08T18:46:58.795Z,72.88
2023-01-08T18:49:27.962Z,73.35
2023-01-08T18:51:56.623Z,73.31
2023-01-08T18:54:25.371Z,73.15
2023-01-08T18:56:54.023Z,73.25
2023-01-08T18:59:24.541Z,73.37
2023-01-08T19:01:54.592Z,73.56
2023-01-08T19:04:23.379Z,73.87
2023-01-08T19:06:52.051Z,73.78
2023-01-08T19:09:20.826Z,74.32
2023-01-08T19:11:49.571Z,74.22
2023-01-08T19:14:18.305Z,74.71
2023-01-08T19:16:51.218Z,75.11
2023-01-08T19:19:21.662Z,75.08
2023-01-08T19:21:50.530Z,74.97
2023-01-08T19:24:19.220Z,75.47
2023-01-08T19:26:47.988Z,75.58
2023-01-08T19:29:16.587Z,75.97
2023-01-08T19:31:45.379Z,75.91
2023-01-08T19:34:14.146Z,76.04
2023-01-08T19:36:44.244Z,75.96
2023-01-08T19:39:13.459Z,76.17
2023-01-08T19:41:59.731Z,76.31
2023-01-08T19:44:28.342Z,76.19
2023-01-08T19:46:56.918Z,76.21
2023-01-08T19:49:25.727Z,76.38
2023-01-08T19:51:55.709Z,76.77
2023-01-08T19:54:25.842Z,76.73
2023-01-08T19:56:56.172Z,77.01
2023-01-08T19:59:25.021Z,76.75
2023-01-08T20:01:53.734Z,76.87
2023-01-08T20:04:22.424Z,77.07
2023-01-08T20:06:52.347Z,77.35
2023-01-08T20:09:22.372Z,77.57
2023-01-08T20:11:51.263Z,77.44
2023-01-08T20:14:21.110Z,77.55
2023-01-08T20:16:49.878Z,78.20
2023-01-08T20:19:20.921Z,78.72
2023-01-08T20:21:51.741Z,79.08
2023-01-08T20:24:21.794Z,79.29
2023-01-08T20:26:55.716Z,79.72
2023-01-08T20:29:24.504Z,80.31
2023-01-08T20:31:56.853Z,80.89
2023-01-08T20:34:26.439Z,81.88
2023-01-08T20:36:56.327Z,82.32
2023-01-08T20:39:27.101Z,83.08
2023-01-08T20:42:03.926Z,83.90
2023-01-08T20:44:34.078Z,84.43
2023-01-08T20:47:03.280Z,84.54
2023-01-08T20:49:32.109Z,84.50
2023-01-08T20:52:00.971Z,85.32
2023-01-08T20:54:31.429Z,85.89
2023-01-08T20:57:03.271Z,86.12
2023-01-08T20:59:32.065Z,86.47
2023-01-08T21:02:01.270Z,86.89
2023-01-08T21:04:31.838Z,87.66
2023-01-08T21:07:00.721Z,87.84
2023-01-08T21:09:30.608Z,88.37
2023-01-08T21:11:59.494Z,88.63
2023-01-08T21:14:28.132Z,88.44
2023-01-08T21:16:56.966Z,89.40
2023-01-08T21:19:25.666Z,89.56
2023-01-08T21:21:54.255Z,89.72
2023-01-08T21:24:23.138Z,89.78
2023-01-08T21:26:53.099Z,90.34
2023-01-08T21:29:23.203Z,90.31
2023-01-08T21:31:51.941Z,90.73
2023-01-08T21:34:21.661Z,90.47
2023-01-08T21:36:50.305Z,90.70
2023-01-08T21:39:18.945Z,91.00
2023-01-08T21:42:05.055Z,91.23
2023-01-08T21:44:52.545Z,91.28
2023-01-08T21:47:21.319Z,91.35
2023-01-08T21:49:50.357Z,91.13
2023-01-08T21:52:41.714Z,90.77
2023-01-08T21:55:10.798Z,90.99
2023-01-08T21:57:40.761Z,91.25
2023-01-08T22:00:12.632Z,91.36
2023-01-08T22:02:41.461Z,91.14
2023-01-08T22:05:10.475Z,91.06
2023-01-08T22:07:39.321Z,91.02
2023-01-08T22:10:09.416Z,91.07
2023-01-08T22:12:38.104Z,91.48
2023-01-08T22:15:07.896Z,91.47
2023-01-08T22:17:37.866Z,92.09
2023-01-08T22:20:09.766Z,91.95
2023-01-08T22:22:38.730Z,92.62
2023-01-08T22:25:09.185Z,93.22
2023-01-08T22:27:37.801Z,93.10
2023-01-08T22:30:08.592Z,94.01
2023-01-08T22:32:38.792Z,94.59
2023-01-08T22:35:07.957Z,94.76
2023-01-08T22:37:37.485Z,94.87
2023-01-08T22:40:07.134Z,94.99
2023-01-08T22:42:35.848Z,94.94
2023-01-08T22:45:04.796Z,94.67
2023-01-08T22:47:33.434Z,94.94
2023-01-08T22:50:03.452Z,94.78
2023-01-08T22:52:32.176Z,95.02
2023-01-08T22:55:00.842Z,95.47
2023-01-08T22:57:29.634Z,95.51
2023-01-08T22:59:58.260Z,95.82
2023-01-08T23:02:26.992Z,95.92
2023-01-08T23:04:56.853Z,95.19
2023-01-08T23:07:26.874Z,95.02
2023-01-08T23:09:55.445Z,94.59
2023-01-08T23:12:24.356Z,94.90
2023-01-08T23:14:53.095Z,94.66
2023-01-08T23:17:21.667Z,95.31
2023-01-08T23:19:50.246Z,94.76
2023-01-08T23:22:18.868Z,94.85
2023-01-08T23:24:49.086Z,95.26
2023-01-08T23:27:17.745Z,95.54
2023-01-08T23:29:46.348Z,95.20
2023-01-08T23:32:14.908Z,95.23
2023-01-08T23:34:43.806Z,95.24
2023-01-08T23:37:12.547Z,95.53
2023-01-08T23:39:41.223Z,94.98
2023-01-08T23:42:11.298Z,94.48
2023-01-08T23:44:40.457Z,94.27
2023-01-08T23:47:09.099Z,94.60
2023-01-08T23:49:37.922Z,94.37
2023-01-08T23:52:06.686Z,94.28
2023-01-08T23:54:36.520Z,94.07
2023-01-08T23:57:06.095Z,94.07
2023-01-08T23:59:36.239Z,94.13
